Time;durP1;ratioP1;P1;durP2;ratioP2;P2;SDS_P1;SDS_P2;PMS_P1;PMS_P2;Temp;Humidity;BMP_temperature;BMP_pressure;BME280_temperature;BME280_humidity;BME280_pressure;Samples;Min_cycle;Max_cycle;Signal;HPM_P1;HPM_P2
2022/04/24 00:00:18;;;;;;;7.70;4.53;;;10.10;99.90;;;;;;15552297;22;20194;-82
2022/04/24 00:06:20;;;;;;;8.65;4.75;;;10.10;99.90;;;;;;15557413;22;20020;-81
2022/04/24 00:12:22;;;;;;;6.82;4.50;;;10.00;99.90;;;;;;15556564;22;20027;-82
2022/04/24 00:18:24;;;;;;;6.05;4.57;;;9.90;99.90;;;;;;15574121;22;20535;-83
2022/04/24 00:24:26;;;;;;;6.05;4.50;;;9.90;99.90;;;;;;15561298;22;20585;-81
2022/04/24 00:30:28;;;;;;;6.55;4.40;;;10.00;99.90;;;;;;15553573;22;20019;-82
2022/04/24 00:36:29;;;;;;;7.00;4.57;;;10.00;99.90;;;;;;15553361;22;20028;-82
2022/04/24 00:42:31;;;;;;;6.97;4.00;;;9.90;99.90;;;;;;15550894;22;20128;-80
2022/04/24 00:48:34;;;;;;;7.20;4.10;;;9.70;99.90;;;;;;15550706;22;20467;-82
2022/04/24 00:54:44;;;;;;;5.32;3.97;;;9.60;99.90;;;;;;15549018;22;20371;-82
2022/04/24 01:00:46;;;;;;;6.72;4.10;;;9.50;99.90;;;;;;15549790;22;20108;-82
2022/04/24 01:06:48;;;;;;;6.90;4.18;;;9.40;99.90;;;;;;15546378;22;20019;-80
2022/04/24 01:12:50;;;;;;;9.05;4.30;;;9.30;99.90;;;;;;15550314;22;20091;-82
2022/04/24 01:18:52;;;;;;;6.85;3.67;;;9.20;99.90;;;;;;15553306;22;20051;-82
2022/04/24 01:24:54;;;;;;;5.53;3.53;;;9.30;99.90;;;;;;15547914;22;20365;-80
2022/04/24 01:30:56;;;;;;;5.63;3.13;;;9.10;99.90;;;;;;15526067;22;20384;-82
2022/04/24 01:36:58;;;;;;;6.05;3.72;;;9.20;99.90;;;;;;15550358;22;20024;-82
2022/04/24 01:43:00;;;;;;;5.40;3.47;;;9.20;99.90;;;;;;15554801;22;20027;-80
2022/04/24 01:49:02;;;;;;;4.15;2.85;;;9.10;99.90;;;;;;15532066;22;20095;-80
2022/04/24 01:55:04;;;;;;;5.88;3.28;;;9.10;99.90;;;;;;15558168;22;20028;-81
2022/04/24 02:01:07;;;;;;;5.68;3.30;;;9.20;99.90;;;;;;15554768;22;20200;-82
2022/04/24 02:07:11;;;;;;;6.03;3.35;;;9.10;99.90;;;;;;15555601;22;20086;-83
2022/04/24 02:13:13;;;;;;;7.33;3.03;;;9.00;99.90;;;;;;15554404;22;20106;-82
2022/04/24 02:19:15;;;;;;;7.90;3.20;;;8.80;99.90;;;;;;15557044;22;20523;-82
2022/04/24 02:25:20;;;;;;;5.97;2.90;;;8.60;99.90;;;;;;15556189;22;20027;-82
2022/04/24 02:31:21;;;;;;;4.50;3.38;;;8.60;99.90;;;;;;15560222;22;20034;-82
2022/04/24 02:37:25;;;;;;;5.65;3.17;;;8.50;99.90;;;;;;15557554;22;20027;-81
2022/04/24 02:43:27;;;;;;;5.85;3.45;;;8.30;99.90;;;;;;15557216;22;20557;-81
2022/04/24 02:49:29;;;;;;;4.57;3.38;;;8.20;99.90;;;;;;15557102;22;20105;-81
2022/04/24 02:55:31;;;;;;;13.35;3.38;;;8.10;99.90;;;;;;15555059;22;20027;-81
2022/04/24 03:01:36;;;;;;;6.10;3.78;;;8.00;99.90;;;;;;15558545;22;20055;-82
2022/04/24 03:07:39;;;;;;;5.70;3.35;;;7.80;99.90;;;;;;15554290;22;20352;-81
2022/04/24 03:13:41;;;;;;;6.45;3.45;;;7.70;99.90;;;;;;15550417;22;20468;-81
2022/04/24 03:19:44;;;;;;;5.97;3.30;;;7.60;99.90;;;;;;15551652;22;20081;-82
2022/04/24 03:25:45;;;;;;;5.32;3.40;;;7.40;99.90;;;;;;15550751;22;20464;-80
2022/04/24 03:31:47;;;;;;;5.05;3.53;;;7.30;99.90;;;;;;15548908;22;20124;-82
2022/04/24 03:37:49;;;;;;;4.88;3.10;;;7.40;99.90;;;;;;15550875;22;20336;-80
2022/04/24 03:43:51;;;;;;;6.68;3.22;;;7.20;99.90;;;;;;15552854;22;20452;-81
2022/04/24 03:49:53;;;;;;;6.38;3.47;;;7.20;99.90;;;;;;15552480;22;20109;-80
2022/04/24 03:55:55;;;;;;;5.45;3.58;;;7.10;99.90;;;;;;15521152;22;20070;-81
2022/04/24 04:01:57;;;;;;;9.40;3.80;;;7.10;99.90;;;;;;15546109;22;20059;-82
2022/04/24 04:07:59;;;;;;;10.38;3.85;;;7.00;99.90;;;;;;15550984;22;20487;-82
2022/04/24 04:14:01;;;;;;;6.88;3.40;;;7.00;99.90;;;;;;15546746;22;20519;-82
2022/04/24 04:20:03;;;;;;;5.70;3.50;;;7.20;99.90;;;;;;15549310;22;20134;-81
2022/04/24 04:26:05;;;;;;;8.05;3.63;;;7.30;99.90;;;;;;15523750;22;20120;-80
2022/04/24 04:32:07;;;;;;;6.47;3.70;;;7.50;99.90;;;;;;15552747;22;20027;-83
2022/04/24 04:38:09;;;;;;;6.03;3.33;;;7.50;99.90;;;;;;15551834;22;20066;-81
2022/04/24 04:44:11;;;;;;;4.90;3.47;;;7.40;99.90;;;;;;15551688;22;20027;-82
2022/04/24 04:50:14;;;;;;;9.40;4.00;;;7.30;99.90;;;;;;15544476;22;20111;-81
2022/04/24 04:56:17;;;;;;;6.10;3.72;;;7.30;99.90;;;;;;15548494;22;20031;-82
2022/04/24 05:02:19;;;;;;;6.90;3.22;;;7.50;99.90;;;;;;15547842;22;20444;-80
2022/04/24 05:08:21;;;;;;;9.10;3.83;;;7.60;99.90;;;;;;15549154;22;20027;-81
2022/04/24 05:14:22;;;;;;;6.53;3.85;;;7.80;99.90;;;;;;15543269;22;20108;-81
2022/04/24 05:20:24;;;;;;;5.00;3.08;;;8.00;99.90;;;;;;15554630;22;20079;-81
2022/04/24 05:26:29;;;;;;;5.45;3.05;;;8.70;99.90;;;;;;15571856;22;20046;-82
2022/04/24 05:32:38;;;;;;;5.30;3.20;;;9.20;99.90;;;;;;15564293;22;20077;-82
2022/04/24 05:38:41;;;;;;;6.03;3.45;;;10.20;99.90;;;;;;15565075;22;20027;-82
2022/04/24 05:44:42;;;;;;;6.95;3.13;;;10.40;99.90;;;;;;15557514;22;20033;-80
2022/04/24 05:50:45;;;;;;;6.30;3.33;;;10.80;99.90;;;;;;15550300;22;20024;-80
2022/04/24 05:56:47;;;;;;;4.43;3.05;;;10.80;99.90;;;;;;15554335;22;20762;-82
2022/04/24 06:02:49;;;;;;;6.55;3.67;;;10.50;99.90;;;;;;15544210;22;20114;-81
2022/04/24 06:08:51;;;;;;;6.10;3.45;;;10.00;99.90;;;;;;15548496;22;20023;-82
2022/04/24 06:14:53;;;;;;;6.03;3.20;;;9.70;99.90;;;;;;15550422;22;20100;-82
2022/04/24 06:20:55;;;;;;;6.75;3.33;;;9.50;99.90;;;;;;15552617;22;20030;-81
2022/04/24 06:26:58;;;;;;;4.68;3.03;;;9.40;99.90;;;;;;15557360;22;20134;-83
2022/04/24 06:33:01;;;;;;;6.35;3.78;;;9.50;99.90;;;;;;15553513;22;20027;-83
2022/04/24 06:39:03;;;;;;;7.05;3.25;;;9.60;99.90;;;;;;15555898;22;20034;-83
2022/04/24 06:45:05;;;;;;;5.32;3.15;;;9.80;99.90;;;;;;15551655;22;20050;-82
2022/04/24 06:51:07;;;;;;;8.85;3.35;;;9.60;99.90;;;;;;15547550;22;20106;-82
2022/04/24 06:57:08;;;;;;;6.63;3.45;;;9.60;99.90;;;;;;15552001;22;20023;-82
2022/04/24 07:03:21;;;;;;;7.30;3.70;;;9.90;99.90;;;;;;15525039;22;20113;-82
2022/04/24 07:09:23;;;;;;;5.32;3.03;;;10.00;99.90;;;;;;15521806;22;20026;-83
2022/04/24 07:15:29;;;;;;;5.70;3.40;;;10.10;99.90;;;;;;15523941;22;20524;-82
2022/04/24 07:21:31;;;;;;;7.65;3.50;;;10.00;99.90;;;;;;15553062;22;20050;-83
2022/04/24 07:27:33;;;;;;;8.43;3.22;;;10.10;99.90;;;;;;15549032;22;20049;-81
2022/04/24 07:33:36;;;;;;;5.40;3.40;;;10.20;99.90;;;;;;15551271;22;20030;-83
2022/04/24 07:39:37;;;;;;;9.43;3.60;;;10.30;99.90;;;;;;15549347;22;20109;-83
2022/04/24 07:45:44;;;;;;;9.23;3.30;;;10.80;99.90;;;;;;15555766;22;20153;-82
2022/04/24 07:51:46;;;;;;;5.28;3.22;;;11.00;99.90;;;;;;15544413;22;20492;-82
2022/04/24 07:57:50;;;;;;;4.90;3.05;;;11.00;99.90;;;;;;15548532;22;20024;-83
2022/04/24 08:03:52;;;;;;;5.65;3.20;;;11.20;99.90;;;;;;15546394;22;20201;-83
2022/04/24 08:09:53;;;;;;;5.68;3.30;;;11.50;99.90;;;;;;15549944;22;20019;-82
2022/04/24 08:15:57;;;;;;;6.10;3.38;;;11.40;99.90;;;;;;15548423;22;20051;-83
2022/04/24 08:21:59;;;;;;;8.40;3.20;;;11.40;99.90;;;;;;15550899;22;20033;-81
2022/04/24 08:28:08;;;;;;;5.80;3.20;;;11.80;99.90;;;;;;15549826;22;20266;-83
2022/04/24 08:34:10;;;;;;;8.73;3.50;;;11.70;99.90;;;;;;15549928;22;20455;-83
2022/04/24 08:40:14;;;;;;;5.60;3.40;;;11.90;99.90;;;;;;15554346;22;20117;-83
2022/04/24 08:46:16;;;;;;;6.57;3.45;;;12.30;99.90;;;;;;15524925;22;20015;-83
2022/04/24 08:52:20;;;;;;;6.38;3.38;;;12.40;99.90;;;;;;15552507;22;20028;-83
2022/04/24 08:58:22;;;;;;;7.30;4.20;;;12.40;99.90;;;;;;15549987;22;20038;-83
2022/04/24 09:04:32;;;;;;;5.53;3.22;;;12.60;99.90;;;;;;15554039;22;20039;-83
2022/04/24 09:10:50;;;;;;;5.68;3.78;;;12.70;99.90;;;;;;15552259;22;20094;-84
2022/04/24 09:16:55;;;;;;;7.80;3.55;;;12.80;99.90;;;;;;15552745;22;20031;-82
2022/04/24 09:23:02;;;;;;;5.55;3.63;;;13.10;99.90;;;;;;15554059;22;20027;-84
2022/04/24 09:29:11;;;;;;;6.90;3.40;;;13.60;99.90;;;;;;15548762;22;20027;-84
2022/04/24 09:35:43;;;;;;;9.40;3.53;;;13.80;99.90;;;;;;15549494;22;20389;-83
2022/04/24 09:41:44;;;;;;;6.18;3.58;;;14.00;99.90;;;;;;15534204;22;20108;-83
2022/04/24 09:47:46;;;;;;;6.15;3.75;;;14.40;99.90;;;;;;15552579;22;20073;-83
2022/04/24 09:53:50;;;;;;;6.75;3.38;;;14.30;99.90;;;;;;15556404;22;20165;-84
2022/04/24 09:59:53;;;;;;;6.30;3.85;;;14.50;99.90;;;;;;15522747;22;20069;-83
2022/04/24 10:05:55;;;;;;;7.88;3.80;;;14.90;99.90;;;;;;15551316;22;20027;-83
2022/04/24 10:12:08;;;;;;;5.88;3.53;;;14.90;99.90;;;;;;15552656;22;20058;-84
2022/04/24 10:18:42;;;;;;;6.10;3.80;;;15.10;99.90;;;;;;15554971;22;20134;-83
2022/04/24 10:24:46;;;;;;;6.10;3.33;;;15.30;99.90;;;;;;15556890;22;20046;-84
2022/04/24 10:31:00;;;;;;;5.35;3.30;;;15.70;99.90;;;;;;15570804;22;20078;-83
2022/04/24 10:37:04;;;;;;;;;;;15.80;99.90;;;;;;15559926;22;20126;-83
2022/04/24 10:43:10;;;;;;;5.18;3.60;;;16.30;99.90;;;;;;15523828;22;20061;-84
2022/04/24 10:49:14;;;;;;;7.25;3.30;;;16.10;99.90;;;;;;15551821;22;20020;-83
2022/04/24 10:55:19;;;;;;;6.97;3.97;;;16.40;99.90;;;;;;15554279;22;20024;-84
2022/04/24 11:01:20;;;;;;;8.75;4.40;;;16.60;99.90;;;;;;15548143;22;20020;-83
2022/04/24 11:07:22;;;;;;;7.32;4.25;;;16.30;99.90;;;;;;15551092;22;20019;-84
2022/04/24 11:13:25;;;;;;;6.15;3.55;;;15.90;99.90;;;;;;15560815;22;20024;-84
2022/04/24 11:19:29;;;;;;;6.43;3.65;;;16.30;99.90;;;;;;15555973;22;20097;-84
2022/04/24 11:25:39;;;;;;;5.32;3.40;;;16.80;99.90;;;;;;15550337;22;20366;-83
2022/04/24 11:31:48;;;;;;;6.57;3.92;;;17.10;99.90;;;;;;15550338;22;20062;-84
2022/04/24 11:37:51;;;;;;;7.25;3.92;;;16.80;99.90;;;;;;15555956;22;20020;-85
2022/04/24 11:44:00;;;;;;;6.47;3.78;;;16.70;99.90;;;;;;15547773;22;20110;-85
2022/04/24 11:50:15;;;;;;;7.68;4.13;;;16.90;99.90;;;;;;15552099;22;20448;-84
2022/04/24 11:56:37;;;;;;;6.97;4.30;;;16.90;99.90;;;;;;15545409;22;20074;-84
2022/04/24 12:02:42;;;;;;;6.17;4.03;;;16.90;99.90;;;;;;15543602;22;20468;-83
2022/04/24 12:08:44;;;;;;;7.45;4.18;;;17.00;99.90;;;;;;15550946;22;20028;-83
2022/04/24 12:14:51;;;;;;;7.35;3.85;;;17.40;99.90;;;;;;15554208;22;20046;-84
2022/04/24 12:20:53;;;;;;;5.68;3.65;;;17.20;99.90;;;;;;15552283;22;20022;-82
2022/04/24 12:26:55;;;;;;;8.85;3.58;;;17.50;99.90;;;;;;15555354;22;20020;-83
2022/04/24 12:33:04;;;;;;;5.78;3.53;;;17.00;99.90;;;;;;15549159;22;20767;-84
2022/04/24 12:39:07;;;;;;;6.43;3.90;;;16.60;99.90;;;;;;15552803;22;20107;-84
2022/04/24 12:45:09;;;;;;;6.97;3.78;;;16.10;99.90;;;;;;15549872;22;20117;-83
2022/04/24 12:51:12;;;;;;;6.45;3.45;;;16.00;99.90;;;;;;15545880;22;20027;-85
2022/04/24 12:57:15;;;;;;;6.37;3.83;;;15.90;99.90;;;;;;15550357;22;20987;-84
2022/04/24 13:03:17;;;;;;;6.55;3.80;;;15.90;99.90;;;;;;15543247;22;20400;-85
2022/04/24 13:09:19;;;;;;;5.53;3.42;;;15.50;99.90;;;;;;15547263;22;20129;-84
2022/04/24 13:15:21;;;;;;;5.05;3.08;;;15.90;99.90;;;;;;15549530;22;20146;-83
2022/04/24 13:21:23;;;;;;;5.10;2.80;;;16.50;99.90;;;;;;15550083;22;20020;-82
2022/04/24 13:27:24;;;;;;;7.07;3.35;;;16.40;99.90;;;;;;15545270;22;20103;-84
2022/04/24 13:33:29;;;;;;;6.35;3.00;;;15.60;99.90;;;;;;15548833;22;20073;-84
2022/04/24 13:39:30;;;;;;;6.43;2.85;;;15.30;99.90;;;;;;15551860;22;20113;-83
2022/04/24 13:45:35;;;;;;;5.93;3.10;;;15.00;99.90;;;;;;15554335;22;20051;-82
2022/04/24 13:51:57;;;;;;;5.63;2.90;;;14.80;99.90;;;;;;15555755;22;20460;-83
2022/04/24 13:57:58;;;;;;;5.15;2.85;;;14.90;99.90;;;;;;15577724;22;20027;-82
2022/04/24 14:04:00;;;;;;;11.23;3.65;;;14.80;99.90;;;;;;15580900;22;20023;-81
2022/04/24 14:10:03;;;;;;;5.90;3.22;;;15.30;99.90;;;;;;15603675;22;20059;-83
2022/04/24 14:16:06;;;;;;;5.20;3.13;;;16.20;99.90;;;;;;15584526;22;20023;-82
2022/04/24 14:22:08;;;;;;;7.13;3.30;;;16.30;99.90;;;;;;15564204;22;20081;-84
2022/04/24 14:28:10;;;;;;;5.72;3.08;;;16.50;99.90;;;;;;15553255;22;20023;-83
2022/04/24 14:34:13;;;;;;;8.80;3.88;;;16.80;99.90;;;;;;15548321;22;20145;-84
2022/04/24 14:40:15;;;;;;;8.25;3.22;;;16.80;99.90;;;;;;15553486;22;20055;-84
2022/04/24 14:58:57;;;;;;;7.65;3.40;;;16.50;99.90;;;;;;15542898;22;20058;-84
2022/04/24 15:04:59;;;;;;;7.97;3.40;;;15.90;99.90;;;;;;15551092;22;20728;-83
2022/04/24 15:11:01;;;;;;;5.93;3.50;;;15.70;99.90;;;;;;15548880;22;20024;-83
2022/04/24 15:17:04;;;;;;;6.72;3.25;;;15.40;99.90;;;;;;15556338;22;20032;-83
2022/04/24 15:23:06;;;;;;;4.45;3.08;;;15.60;99.90;;;;;;15549801;22;20019;-82
2022/04/24 15:29:08;;;;;;;6.25;3.03;;;15.30;99.90;;;;;;15556516;22;20484;-84
2022/04/24 15:35:10;;;;;;;5.55;3.30;;;15.00;99.90;;;;;;15550941;22;20372;-84
2022/04/24 15:41:15;;;;;;;5.30;3.20;;;14.90;99.90;;;;;;15548009;22;20098;-83
2022/04/24 15:47:17;;;;;;;5.65;3.05;;;14.60;99.90;;;;;;15551451;22;20027;-84
2022/04/24 15:53:19;;;;;;;5.18;3.25;;;14.60;99.90;;;;;;15554192;22;20043;-84
2022/04/24 15:59:21;;;;;;;5.53;3.38;;;14.60;99.90;;;;;;15556189;22;20023;-84
2022/04/24 16:05:24;;;;;;;5.05;3.17;;;14.70;99.90;;;;;;15550398;22;20035;-83
2022/04/24 16:11:27;;;;;;;6.97;3.60;;;14.70;99.90;;;;;;15552256;22;20089;-84
2022/04/24 16:17:29;;;;;;;5.07;3.50;;;14.60;99.90;;;;;;15558520;22;20514;-83
2022/04/24 16:23:31;;;;;;;4.32;3.22;;;14.60;99.90;;;;;;15554571;22;20020;-83
2022/04/24 16:35:54;;;;;;;5.00;3.80;;;14.30;99.90;;;;;;15541366;22;20202;-82
2022/04/24 16:41:58;;;;;;;9.27;3.80;;;14.20;99.90;;;;;;15555537;22;20046;-84
2022/04/24 16:48:00;;;;;;;6.97;3.85;;;14.10;99.90;;;;;;15561124;22;20023;-82
2022/04/24 17:00:24;;;;;;;5.40;3.97;;;13.80;99.90;;;;;;15547725;22;20019;-82
2022/04/24 17:06:26;;;;;;;5.88;3.58;;;13.70;99.90;;;;;;15543602;22;20149;-82
2022/04/24 17:12:31;;;;;;;5.38;3.60;;;13.60;99.90;;;;;;15547568;22;20024;-82
2022/04/24 17:18:34;;;;;;;5.70;3.90;;;13.50;99.90;;;;;;15553175;22;20039;-82
2022/04/24 17:24:37;;;;;;;6.80;3.75;;;13.50;99.90;;;;;;15545399;22;20023;-82
2022/04/24 17:30:41;;;;;;;6.45;4.53;;;13.40;99.90;;;;;;15555103;22;20024;-83
2022/04/24 17:36:43;;;;;;;7.18;4.57;;;13.30;99.90;;;;;;15555143;22;20023;-83
2022/04/24 17:42:48;;;;;;;5.75;4.32;;;13.20;99.90;;;;;;15549671;22;20024;-82
2022/04/24 17:48:51;;;;;;;6.40;4.15;;;13.10;99.90;;;;;;15550999;22;21000;-83
2022/04/24 17:54:54;;;;;;;6.77;3.93;;;13.10;99.90;;;;;;15547326;22;20094;-82
2022/04/24 18:00:56;;;;;;;7.18;4.45;;;13.10;99.90;;;;;;15547827;22;20126;-82
2022/04/24 18:06:58;;;;;;;11.95;5.40;;;13.10;99.90;;;;;;15541458;22;20029;-83
2022/04/24 18:13:02;;;;;;;10.90;5.63;;;12.70;99.90;;;;;;15543882;22;20059;-82
2022/04/24 18:19:06;;;;;;;10.40;5.20;;;12.50;99.90;;;;;;15552606;22;20104;-82
2022/04/24 18:25:08;;;;;;;13.07;5.83;;;12.00;99.90;;;;;;15560290;22;20030;-83
2022/04/24 18:31:11;;;;;;;11.30;5.78;;;11.70;99.90;;;;;;15549143;22;20045;-83
2022/04/24 18:43:34;;;;;;;10.68;5.55;;;11.40;99.90;;;;;;15558465;22;20510;-84
2022/04/24 18:49:37;;;;;;;11.07;5.85;;;11.10;99.90;;;;;;15557277;22;20518;-83
2022/04/24 18:55:39;;;;;;;14.48;6.50;;;10.80;99.90;;;;;;15556080;22;20028;-84
2022/04/24 19:01:41;;;;;;;12.85;6.88;;;10.90;99.90;;;;;;15558741;22;20101;-85
2022/04/24 19:07:44;;;;;;;14.90;6.32;;;10.90;99.90;;;;;;15554111;22;20149;-85
2022/04/24 19:13:47;;;;;;;12.73;6.30;;;10.60;99.90;;;;;;15563076;22;20371;-85
2022/04/24 19:19:49;;;;;;;15.53;7.13;;;10.50;99.90;;;;;;15566503;22;20475;-85
2022/04/24 19:25:51;;;;;;;14.40;7.05;;;10.50;99.90;;;;;;15567742;22;20101;-84
2022/04/24 19:31:53;;;;;;;11.63;6.60;;;10.50;99.90;;;;;;15593568;22;20026;-84
2022/04/24 19:37:55;;;;;;;10.52;6.47;;;10.50;99.90;;;;;;15564456;22;20020;-84
2022/04/24 19:43:57;;;;;;;15.10;6.85;;;10.30;99.90;;;;;;15553061;22;20130;-84
2022/04/24 19:49:59;;;;;;;11.38;6.63;;;10.30;99.90;;;;;;15551136;22;20027;-84
2022/04/24 19:56:02;;;;;;;12.93;7.05;;;10.20;99.90;;;;;;15556994;22;20058;-84
2022/04/24 20:02:07;;;;;;;16.58;7.40;;;10.20;99.90;;;;;;15555513;22;20070;-85
2022/04/24 20:08:09;;;;;;;12.00;6.47;;;10.10;99.90;;;;;;15556568;22;20468;-84
2022/04/24 20:14:13;;;;;;;10.68;5.68;;;10.00;99.90;;;;;;15553297;22;20069;-84
2022/04/24 20:20:16;;;;;;;12.13;5.67;;;10.00;99.90;;;;;;15553892;22;20034;-84
2022/04/24 20:26:20;;;;;;;8.98;5.30;;;9.70;99.90;;;;;;15552939;22;20027;-84
2022/04/24 20:32:22;;;;;;;11.60;5.80;;;9.60;99.90;;;;;;15522879;22;20450;-84
2022/04/24 20:38:24;;;;;;;11.25;5.93;;;9.60;99.90;;;;;;15554805;22;20595;-84
2022/04/24 20:44:26;;;;;;;12.43;6.15;;;9.50;99.90;;;;;;15551177;22;20078;-84
2022/04/24 20:50:28;;;;;;;13.30;7.40;;;9.50;99.90;;;;;;15552060;22;20471;-84
2022/04/24 20:56:33;;;;;;;12.88;7.03;;;9.40;99.90;;;;;;15555642;22;20154;-85
2022/04/24 21:02:35;;;;;;;15.65;7.35;;;9.50;99.90;;;;;;15559261;22;20099;-84
2022/04/24 21:08:37;;;;;;;12.82;6.95;;;9.40;99.90;;;;;;15557312;22;20840;-84
2022/04/24 21:14:39;;;;;;;15.43;7.20;;;9.50;99.90;;;;;;15552967;22;20056;-84
2022/04/24 21:21:08;;;;;;;13.40;8.00;;;9.40;99.90;;;;;;15551927;22;20023;-84
2022/04/24 21:27:10;;;;;;;16.55;8.00;;;9.50;99.90;;;;;;15554335;22;20024;-85
2022/04/24 21:33:12;;;;;;;16.77;8.60;;;9.40;99.90;;;;;;15561757;22;20533;-85
2022/04/24 21:39:19;;;;;;;18.48;8.40;;;9.40;99.90;;;;;;15553042;22;20024;-84
2022/04/24 21:45:21;;;;;;;16.15;8.70;;;9.40;99.90;;;;;;15553866;22;20145;-86
2022/04/24 21:51:23;;;;;;;14.45;8.00;;;9.40;99.90;;;;;;15552981;22;20597;-85
2022/04/24 21:57:24;;;;;;;15.57;7.72;;;9.40;99.90;;;;;;15561771;22;20456;-84
2022/04/24 22:09:56;;;;;;;16.45;9.02;;;9.10;99.90;;;;;;15544155;22;20027;-85
2022/04/24 22:15:59;;;;;;;15.48;9.30;;;9.10;99.90;;;;;;15554160;22;20105;-86
2022/04/24 22:28:27;;;;;;;20.70;10.73;;;9.10;99.90;;;;;;15558694;22;20605;-85
2022/04/24 22:34:30;;;;;;;16.80;10.18;;;9.10;99.90;;;;;;15558218;22;20045;-84
2022/04/24 22:40:32;;;;;;;20.13;9.40;;;9.10;99.90;;;;;;15555387;22;20018;-85
2022/04/24 22:46:34;;;;;;;17.20;11.35;;;9.20;99.90;;;;;;15556267;22;20024;-85
2022/04/24 22:52:37;;;;;;;19.83;11.05;;;9.10;99.90;;;;;;15557988;22;20028;-85
2022/04/24 22:58:40;;;;;;;20.42;11.30;;;9.10;99.90;;;;;;15561950;22;20472;-84
2022/04/24 23:04:42;;;;;;;19.77;10.68;;;9.10;99.90;;;;;;15557217;22;20023;-85
2022/04/24 23:10:44;;;;;;;23.48;12.85;;;9.00;99.90;;;;;;15558060;22;20049;-85
2022/04/24 23:16:46;;;;;;;20.05;12.02;;;8.90;99.90;;;;;;15558449;22;20034;-84
2022/04/24 23:22:48;;;;;;;18.83;12.40;;;8.80;99.90;;;;;;15557004;22;20050;-85
2022/04/24 23:28:49;;;;;;;18.33;12.20;;;8.70;99.90;;;;;;15557402;22;20051;-84
2022/04/24 23:34:51;;;;;;;22.90;12.82;;;8.80;99.90;;;;;;15556284;22;20181;-85
2022/04/24 23:40:53;;;;;;;21.90;12.30;;;8.80;99.90;;;;;;15561232;22;20105;-84
2022/04/24 23:46:55;;;;;;;19.80;11.90;;;8.60;99.90;;;;;;15570602;22;20423;-85
2022/04/24 23:52:57;;;;;;;22.55;13.45;;;8.70;99.90;;;;;;15578015;22;20043;-85
2022/04/24 23:58:59;;;;;;;27.42;13.88;;;8.40;99.90;;;;;;15574293;22;20089;-84
